Time;durP1;ratioP1;P1;durP2;ratioP2;P2;SDS_P1;SDS_P2;PMS_P1;PMS_P2;Temp;Humidity;BMP_temperature;BMP_pressure;BME280_temperature;BME280_humidity;BME280_pressure;Samples;Min_cycle;Max_cycle;Signal;HPM_P1;HPM_P2
2022/01/03 00:01:44;;;;;;;3.93;3.63;;;;;;;19.10;51.74;97446.28;4857328;29;20290;-90
2022/01/03 00:04:11;;;;;;;3.40;3.10;;;;;;;18.98;51.29;97430.53;4869340;29;20233;-89
2022/01/03 00:06:41;;;;;;;3.80;3.50;;;;;;;19.04;51.33;97436.72;4875304;29;20289;-89
2022/01/03 00:09:08;;;;;;;3.67;3.37;;;;;;;18.89;51.41;97399.66;4861740;29;20269;-89
2022/01/03 00:11:35;;;;;;;3.80;3.47;;;;;;;19.01;51.55;97413.69;4873770;29;20277;-90
2022/01/03 00:14:02;;;;;;;3.63;3.33;;;;;;;18.69;51.26;97350.53;4858531;29;20226;-89
2022/01/03 00:16:29;;;;;;;4.00;3.60;;;;;;;18.79;51.31;97362.78;4858959;29;20202;-89
2022/01/03 00:18:56;;;;;;;3.70;3.40;;;;;;;19.19;51.32;97428.78;4842300;29;20226;-90
2022/01/03 00:21:27;;;;;;;3.70;3.40;;;;;;;19.01;51.22;97400.09;4861501;29;20236;-89
2022/01/03 00:23:59;;;;;;;4.07;3.33;;;;;;;19.03;51.22;97408.63;4875812;29;20321;-90
2022/01/03 00:26:26;;;;;;;3.63;3.33;;;;;;;18.73;51.20;97342.19;4875078;29;20254;-89
2022/01/03 00:28:58;;;;;;;4.00;3.60;;;;;;;19.02;51.23;97394.19;4877699;29;20202;-90
2022/01/03 00:31:38;;;;;;;3.97;3.67;;;;;;;18.86;51.31;97374.06;4859273;29;20322;-89
2022/01/03 00:34:06;;;;;;;3.73;3.43;;;;;;;18.69;51.38;97342.00;4863722;29;20221;-90
2022/01/03 00:36:33;;;;;;;3.73;3.43;;;;;;;18.90;51.37;97378.44;4879721;29;20711;-90
2022/01/03 00:38:59;;;;;;;3.73;3.43;;;;;;;18.80;51.53;97359.41;4876948;29;20424;-90
2022/01/03 00:41:27;;;;;;;2.90;2.70;;;;;;;18.83;51.25;97358.69;4872593;29;20215;-90
2022/01/03 00:43:54;;;;;;;3.47;3.17;;;;;;;18.67;51.18;97333.44;4860640;29;20747;-89
2022/01/03 00:46:21;;;;;;;3.60;3.30;;;;;;;19.17;51.29;97435.50;4855139;29;20313;-90
2022/01/03 00:48:47;;;;;;;3.30;3.00;;;;;;;18.79;51.10;97350.03;4879909;29;20252;-90
2022/01/03 00:51:19;;;;;;;3.83;3.53;;;;;;;19.06;51.08;97396.91;4879485;29;20245;-89
2022/01/03 00:53:47;;;;;;;3.97;3.60;;;;;;;19.10;51.15;97402.97;4880454;29;20218;-90
2022/01/03 00:56:18;;;;;;;4.43;3.70;;;;;;;18.76;51.20;97339.75;4879238;29;20252;-89
2022/01/03 00:59:04;;;;;;;3.90;3.50;;;;;;;19.30;51.19;97436.03;4879872;29;20291;-89
2022/01/03 01:01:31;;;;;;;3.60;3.30;;;;;;;18.91;51.25;97364.91;4886963;29;20820;-90
2022/01/03 01:03:58;;;;;;;3.67;3.37;;;;;;;19.29;51.13;97420.69;4884858;29;20230;-88
2022/01/03 01:06:24;;;;;;;3.30;3.00;;;;;;;19.03;51.32;97390.81;4875914;29;20686;-89
2022/01/03 01:08:57;;;;;;;3.50;3.20;;;;;;;18.94;51.32;97370.09;4845564;29;20314;-90
2022/01/03 01:11:28;;;;;;;4.00;3.53;;;;;;;19.01;51.31;97370.38;4877411;29;20266;-90
2022/01/03 01:13:55;;;;;;;3.60;3.30;;;;;;;19.15;51.16;97398.91;4876115;29;20310;-90
2022/01/03 01:16:22;;;;;;;3.80;3.20;;;;;;;18.96;51.45;97359.19;4850185;29;20206;-87
2022/01/03 01:18:49;;;;;;;3.47;3.17;;;;;;;19.00;51.40;97370.31;4864137;29;20222;-89
2022/01/03 01:21:16;;;;;;;3.90;3.50;;;;;;;18.76;51.36;97332.13;4878182;29;20218;-89
2022/01/03 01:23:43;;;;;;;3.57;3.27;;;;;;;19.26;51.29;97423.09;4927373;23;20718;-80
2022/01/03 01:28:58;;;;;;;3.20;3.00;;;;;;;14.34;51.30;96578.66;4900240;29;20237;-82
2022/01/03 01:31:25;;;;;;;3.23;3.00;;;;;;;14.20;51.26;96578.06;4882896;29;20284;-81
2022/01/03 01:33:53;;;;;;;3.17;2.87;;;;;;;9.85;50.96;95797.19;4905513;29;20221;-82
2022/01/03 01:36:23;;;;;;;3.50;3.20;;;;;;;12.30;51.03;96219.84;4896935;29;20625;-81
2022/01/03 01:38:50;;;;;;;3.50;3.20;;;;;;;16.58;51.44;97005.00;4898177;29;20219;-82
2022/01/03 01:41:18;;;;;;;3.87;3.07;;;;;;;15.09;51.38;96752.94;4906596;29;20205;-82
2022/01/03 01:43:47;;;;;;;2.87;2.67;;;;;;;14.55;51.05;96689.13;4896948;29;20316;-80
2022/01/03 01:46:21;;;;;;;3.00;2.80;;;;;;;19.23;51.23;97415.34;4898091;29;20553;-80
2022/01/03 01:48:51;;;;;;;3.60;3.30;;;;;;;19.23;51.45;97423.00;4904852;29;20269;-81
2022/01/03 01:51:22;;;;;;;3.10;2.90;;;;;;;18.27;51.55;97321.72;4916464;29;20205;-79
2022/01/03 01:53:53;;;;;;;3.20;3.00;;;;;;;16.67;51.62;96972.38;4918429;29;20731;-87
2022/01/03 01:56:23;;;;;;;3.67;3.03;;;;;;;19.22;51.40;97417.00;4906967;29;20219;-87
2022/01/03 01:59:12;;;;;;;3.20;3.00;;;;;;;15.35;51.42;96743.13;4903591;29;20241;-89
2022/01/03 02:01:47;;;;;;;3.30;3.00;;;;;;;14.20;51.42;96600.78;4902328;29;20205;-89
2022/01/03 02:04:16;;;;;;;2.97;2.70;;;;;;;13.00;51.42;96489.38;4899698;29;20221;-87
2022/01/03 02:06:47;;;;;;;3.60;3.30;;;;;;;16.82;51.48;97027.13;4889736;29;20202;-87
2022/01/03 02:09:42;;;;;;;3.63;3.30;;;;;;;19.20;51.61;97407.59;4888359;29;20201;-88
2022/01/03 02:12:16;;;;;;;3.27;2.97;;;;;;;17.77;51.47;97170.59;4904443;29;20205;-90
2022/01/03 02:14:51;;;;;;;3.30;3.00;;;;;;;15.68;51.40;96817.06;4898732;29;20232;-80
2022/01/03 02:17:20;;;;;;;2.70;2.50;;;;;;;13.16;51.15;96353.06;4908463;29;20208;-81
2022/01/03 02:20:07;;;;;;;2.90;2.70;;;;;;;16.84;51.26;97010.28;4899224;29;20587;-80
2022/01/03 02:22:36;;;;;;;3.00;2.80;;;;;;;14.90;51.37;96646.75;4880082;29;20201;-81
2022/01/03 02:25:07;;;;;;;3.47;3.17;;;;;;;19.23;51.48;97395.84;4900149;29;20634;-78
2022/01/03 02:27:37;;;;;;;3.17;2.87;;;;;;;14.44;50.87;96616.16;4896830;29;20233;-81
2022/01/03 02:30:06;;;;;;;3.10;2.90;;;;;;;12.33;51.13;96272.88;4913924;29;20210;-83
2022/01/03 02:32:32;;;;;;;4.20;2.93;;;;;;;13.27;51.30;96427.56;4914268;29;20330;-81
2022/01/03 02:34:59;;;;;;;2.80;2.60;;;;;;;19.26;51.29;97395.06;4895444;29;20209;-80
2022/01/03 02:37:26;;;;;;;3.03;2.73;;;;;;;14.66;51.17;96687.91;4896116;29;20273;-80
2022/01/03 02:39:53;;;;;;;3.30;3.00;;;;;;;18.91;51.39;97340.31;4903829;29;20209;-80
2022/01/03 02:42:24;;;;;;;3.10;2.90;;;;;;;14.71;51.17;96622.34;4912970;29;20209;-81
2022/01/03 02:45:04;;;;;;;3.60;3.30;;;;;;;18.56;51.12;97286.38;4884709;29;20699;-81
2022/01/03 02:47:31;;;;;;;3.23;2.93;;;;;;;14.94;50.96;96697.53;4865773;29;20209;-83
2022/01/03 02:49:57;;;;;;;3.23;2.93;;;;;;;15.66;51.07;96827.13;4895763;29;20455;-82
2022/01/03 02:52:26;;;;;;;3.23;2.93;;;;;;;17.70;51.31;97141.53;4900399;29;20316;-82
2022/01/03 02:54:53;;;;;;;3.27;2.97;;;;;;;17.97;51.10;97211.19;4896356;29;20229;-82
2022/01/03 02:57:23;;;;;;;2.90;2.70;;;;;;;17.09;51.29;97056.13;4870743;29;20201;-79
2022/01/03 02:59:55;;;;;;;2.73;2.53;;;;;;;15.15;51.32;96718.66;4896392;29;20740;-82
2022/01/03 03:02:26;;;;;;;2.70;2.50;;;;;;;17.99;51.26;97214.69;4868150;29;20269;-80
2022/01/03 03:04:57;;;;;;;2.70;2.50;;;;;;;18.10;51.36;97248.13;4879220;29;20221;-80
2022/01/03 03:07:26;;;;;;;2.97;2.77;;;;;;;14.45;50.86;96597.69;4893747;29;20715;-82
2022/01/03 03:09:53;;;;;;;2.80;2.60;;;;;;;19.30;51.08;97435.19;4896675;29;20213;-82
2022/01/03 03:12:21;;;;;;;3.13;2.83;;;;;;;18.58;51.09;97308.53;4880311;29;20735;-82
2022/01/03 03:14:47;;;;;;;3.00;2.80;;;;;;;17.53;51.14;97134.06;4879683;29;20572;-81
2022/01/03 03:17:15;;;;;;;2.60;2.40;;;;;;;17.57;51.22;97144.41;4898598;29;20208;-82
2022/01/03 03:19:58;;;;;;;2.87;2.67;;;;;;;19.28;51.33;97447.00;4898759;29;20204;-80
2022/01/03 03:22:27;;;;;;;2.80;2.60;;;;;;;15.89;51.13;96871.13;4881102;29;20240;-81
2022/01/03 03:25:30;;;;;;;3.40;3.10;;;;;;;19.28;51.34;97465.72;4896026;29;20292;-83
2022/01/03 03:28:02;;;;;;;2.90;2.70;;;;;;;18.72;51.24;97376.09;4879890;29;20213;-79
2022/01/03 03:30:47;;;;;;;3.00;2.70;;;;;;;17.32;51.01;97121.34;4894407;29;20217;-81
2022/01/03 03:33:19;;;;;;;3.00;2.70;;;;;;;12.04;50.81;96381.44;4875831;29;20833;-81
2022/01/03 03:35:46;;;;;;;2.80;2.60;;;;;;;15.74;50.94;96848.59;4888916;29;20495;-81
2022/01/03 03:38:13;;;;;;;3.10;2.80;;;;;;;17.39;50.97;97168.19;4882312;29;20284;-80
2022/01/03 03:40:40;;;;;;;2.90;2.60;;;;;;;18.04;51.00;97268.25;4880600;29;20237;-81
2022/01/03 03:43:07;;;;;;;2.70;2.50;;;;;;;13.28;50.50;96439.34;4885606;29;20285;-80
2022/01/03 03:45:34;;;;;;;2.70;2.50;;;;;;;14.29;50.92;96613.84;4894271;29;20272;-83
2022/01/03 03:48:01;;;;;;;2.90;2.70;;;;;;;18.39;50.98;97306.13;4913587;29;20212;-81
2022/01/03 03:50:27;;;;;;;2.67;2.47;;;;;;;17.57;51.01;97166.41;4880986;29;20271;-81
2022/01/03 03:52:54;;;;;;;2.70;2.50;;;;;;;17.58;50.77;97163.03;4905813;29;20224;-89
2022/01/03 03:55:21;;;;;;;2.73;2.53;;;;;;;14.72;50.78;96674.69;4919607;29;20204;-88
2022/01/03 03:57:47;;;;;;;2.70;2.50;;;;;;;18.03;50.60;97269.06;4915784;29;20808;-89
2022/01/03 04:00:16;;;;;;;3.10;2.87;;;;;;;11.34;50.86;96162.53;4899022;29;20297;-87
2022/01/03 04:02:43;;;;;;;2.90;2.67;;;;;;;18.93;51.07;97504.22;4883510;29;20242;-88
2022/01/03 04:05:10;;;;;;;2.77;2.57;;;;;;;14.28;50.68;96612.13;4885628;29;20240;-91
2022/01/03 04:07:40;;;;;;;2.53;2.33;;;;;;;15.59;50.97;96826.81;4872932;29;20217;-90
2022/01/03 04:10:11;;;;;;;2.87;2.67;;;;;;;12.33;51.00;96324.13;4916225;29;20208;-89
2022/01/03 04:12:38;;;;;;;2.70;2.50;;;;;;;14.45;51.09;96641.50;4901331;29;20278;-88
2022/01/03 04:15:05;;;;;;;2.50;2.30;;;;;;;12.73;51.15;96453.63;4886338;29;20205;-89
2022/01/03 04:17:32;;;;;;;2.70;2.50;;;;;;;13.04;50.97;96397.06;4883489;29;20561;-89
2022/01/03 04:19:58;;;;;;;2.90;2.70;;;;;;;13.27;50.76;96537.66;4898740;29;20209;-89
2022/01/03 04:22:25;;;;;;;2.87;2.57;;;;;;;16.12;51.07;96927.03;4880272;29;20206;-89
2022/01/03 04:24:52;;;;;;;2.43;2.23;;;;;;;16.81;51.13;97050.75;4868300;29;20702;-88
2022/01/03 04:27:18;;;;;;;2.20;2.10;;;;;;;10.08;51.44;96071.78;4902743;29;20198;-88
2022/01/03 04:29:45;;;;;;;2.20;2.07;;;;;;;9.88;50.69;96013.03;4867904;29;20208;-89
2022/01/03 04:32:12;;;;;;;2.40;2.20;;;;;;;17.66;51.08;97217.56;4902309;29;20204;-81
2022/01/03 04:34:39;;;;;;;2.30;2.10;;;;;;;17.88;51.00;97263.34;4908031;29;20707;-78
2022/01/03 04:37:09;;;;;;;2.40;2.20;;;;;;;18.15;50.98;97302.59;4869803;29;20213;-80
2022/01/03 04:39:41;;;;;;;2.60;2.40;;;;;;;18.49;50.93;97355.66;4880482;29;20229;-81
2022/01/03 04:42:07;;;;;;;2.20;2.00;;;;;;;13.54;50.61;96543.94;4890065;29;20667;-80
2022/01/03 04:44:34;;;;;;;2.50;2.30;;;;;;;18.21;50.63;97432.56;4919674;29;20232;-81
2022/01/03 04:47:01;;;;;;;2.70;2.50;;;;;;;18.79;50.54;97411.16;4929696;29;20233;-81
2022/01/03 04:49:27;;;;;;;2.73;2.53;;;;;;;19.48;50.64;97508.06;4897893;29;20291;-80
2022/01/03 04:51:54;;;;;;;2.40;2.20;;;;;;;19.50;50.61;97524.31;4929780;29;20656;-79
2022/01/03 04:54:21;;;;;;;2.30;2.17;;;;;;;16.56;50.32;97039.56;4912580;29;20232;-80
2022/01/03 04:56:47;;;;;;;2.33;2.13;;;;;;;17.38;50.60;97154.59;4893618;29;20198;-80
2022/01/03 04:59:17;;;;;;;2.70;2.50;;;;;;;13.81;50.54;96578.00;4879055;29;20213;-80
2022/01/03 05:01:53;;;;;;;4.13;2.53;;;;;;;18.32;50.59;97342.25;4894466;29;20208;-81
2022/01/03 05:04:22;;;;;;;3.10;2.50;;;;;;;19.55;50.64;97540.66;4891327;29;20229;-80
2022/01/03 05:06:49;;;;;;;2.30;2.10;;;;;;;17.70;50.39;97235.53;4894519;29;20247;-80
2022/01/03 05:09:16;;;;;;;2.33;2.13;;;;;;;15.16;50.48;96777.72;4898114;29;20209;-80
2022/01/03 05:11:42;;;;;;;2.10;2.00;;;;;;;13.03;50.18;96411.34;4928754;29;20621;-80
2022/01/03 05:14:10;;;;;;;2.40;2.20;;;;;;;14.18;50.38;96655.44;4926714;29;20225;-80
2022/01/03 05:16:37;;;;;;;2.20;2.00;;;;;;;11.88;50.19;96211.25;4896205;29;20236;-80
2022/01/03 05:19:04;;;;;;;2.30;2.10;;;;;;;18.77;50.47;97404.28;4904023;29;20647;-81
2022/01/03 05:21:30;;;;;;;2.40;2.20;;;;;;;18.71;50.37;97391.31;4887791;29;20295;-80
2022/01/03 05:23:57;;;;;;;2.37;2.10;;;;;;;19.22;50.19;97485.81;4895390;29;20284;-81
2022/01/03 05:26:24;;;;;;;2.60;2.40;;;;;;;17.95;50.74;97268.72;4881026;29;21039;-80
2022/01/03 05:28:51;;;;;;;2.30;2.10;;;;;;;17.51;50.35;97178.88;4897252;29;20214;-82
2022/01/03 05:31:17;;;;;;;2.30;2.10;;;;;;;18.48;50.48;97344.63;4913817;29;20233;-82
2022/01/03 05:33:44;;;;;;;2.50;2.30;;;;;;;18.97;50.45;97432.22;4892097;29;20236;-81
2022/01/03 05:36:13;;;;;;;2.13;2.03;;;;;;;18.23;50.52;97309.69;4891254;29;20243;-80
2022/01/03 05:38:40;;;;;;;2.13;2.00;;;;;;;18.84;50.38;97404.56;4897389;29;20205;-80
2022/01/03 05:41:07;;;;;;;2.13;2.00;;;;;;;19.58;50.62;97529.69;4881373;29;20233;-80
2022/01/03 05:43:34;;;;;;;2.70;2.20;;;;;;;18.88;50.39;97405.53;4917668;29;20233;-82
2022/01/03 05:46:00;;;;;;;2.30;2.10;;;;;;;19.56;50.47;97537.28;4886959;29;20249;-82
2022/01/03 05:48:28;;;;;;;2.00;1.90;;;;;;;19.23;50.42;97494.31;4896673;29;20626;-81
2022/01/03 05:50:54;;;;;;;2.03;1.90;;;;;;;18.23;50.43;97318.16;4894252;29;20237;-82
2022/01/03 05:53:21;;;;;;;2.37;2.17;;;;;;;18.76;50.48;97416.13;4876863;29;20682;-82
2022/01/03 05:55:49;;;;;;;2.30;2.10;;;;;;;16.72;50.36;97058.00;4891269;29;20248;-82
2022/01/03 05:58:16;;;;;;;2.20;2.00;;;;;;;18.95;50.40;97444.00;4896330;29;20205;-82
2022/01/03 06:00:45;;;;;;;2.40;2.20;;;;;;;18.26;50.31;97377.63;4880986;29;20598;-80
2022/01/03 06:03:13;;;;;;;2.40;2.20;;;;;;;19.56;50.31;97572.97;4867986;29;20688;-81
2022/01/03 06:06:05;;;;;;;2.13;2.00;;;;;;;17.29;50.57;97141.53;4893186;29;20249;-81
2022/01/03 06:08:29;;;;;;;2.27;2.07;;;;;;;17.82;50.32;97220.78;4898666;29;20209;-81
2022/01/03 06:10:56;;;;;;;2.10;1.90;;;;;;;18.98;50.63;97433.94;4926622;29;20239;-78
2022/01/03 06:13:22;;;;;;;2.30;2.10;;;;;;;19.58;50.39;97519.47;4895122;29;20273;-80
2022/01/03 06:15:49;;;;;;;1.80;1.70;;;;;;;19.21;50.52;97460.25;4907170;29;20296;-91
2022/01/03 06:18:16;;;;;;;2.10;2.00;;;;;;;14.22;50.21;96619.41;4883615;29;20212;-89
2022/01/03 06:20:43;;;;;;;1.90;1.80;;;;;;;18.18;50.48;97288.31;4885487;29;20201;-88
2022/01/03 06:23:11;;;;;;;1.90;1.80;;;;;;;18.94;50.35;97451.59;4899606;29;20536;-89
2022/01/03 06:25:38;;;;;;;2.40;2.17;;;;;;;19.24;50.55;97476.53;4898129;29;20316;-90
2022/01/03 06:28:08;;;;;;;2.00;1.90;;;;;;;19.55;50.44;97530.44;4900639;29;20208;-88
2022/01/03 06:30:38;;;;;;;1.90;1.80;;;;;;;15.33;50.28;96802.03;4920051;29;20211;-89
2022/01/03 06:33:05;;;;;;;2.00;1.90;;;;;;;19.02;50.52;97457.84;4896528;29;20338;-90
2022/01/03 06:35:35;;;;;;;2.00;1.90;;;;;;;17.48;50.42;97171.13;4897123;29;20206;-87
2022/01/03 06:38:02;;;;;;;2.27;2.07;;;;;;;18.36;50.36;97395.00;4888039;29;20210;-89
2022/01/03 06:40:29;;;;;;;1.77;1.67;;;;;;;17.31;50.59;97152.66;4881651;29;20264;-88
2022/01/03 06:42:56;;;;;;;2.00;1.90;;;;;;;18.89;50.52;97417.47;4889514;29;20225;-88
2022/01/03 06:45:22;;;;;;;2.20;2.00;;;;;;;19.27;50.22;97508.97;4876787;29;20233;-89
2022/01/03 06:47:55;;;;;;;1.80;1.70;;;;;;;19.59;50.42;97541.59;4881673;29;20213;-88
2022/01/03 06:50:22;;;;;;;1.90;1.80;;;;;;;17.86;50.44;97247.19;4920402;29;20200;-88
2022/01/03 06:52:48;;;;;;;1.73;1.63;;;;;;;19.60;50.40;97543.34;4877691;29;20225;-89
2022/01/03 06:55:15;;;;;;;1.80;1.70;;;;;;;17.57;50.23;97243.50;4907117;29;20268;-88
2022/01/03 06:57:42;;;;;;;1.70;1.60;;;;;;;19.57;50.29;97543.25;4880466;29;20233;-88
2022/01/03 07:00:09;;;;;;;2.23;2.10;;;;;;;19.65;50.21;97546.94;4887552;29;20748;-88
2022/01/03 07:02:35;;;;;;;1.80;1.70;;;;;;;18.51;50.35;97352.38;4896377;29;20213;-89
2022/01/03 07:05:02;;;;;;;2.20;2.00;;;;;;;19.36;50.12;97533.09;4875534;29;20216;-89
2022/01/03 07:07:29;;;;;;;2.10;2.00;;;;;;;19.17;50.10;97459.31;4892333;29;20221;-87
2022/01/03 07:09:55;;;;;;;2.00;1.90;;;;;;;19.34;50.05;97510.94;4901654;29;20304;-89
2022/01/03 07:12:22;;;;;;;1.80;1.70;;;;;;;19.39;50.23;97500.09;4875727;29;20273;-89
2022/01/03 07:20:00;;;;;;;1.97;1.70;;;;;;;17.35;47.71;97139.25;4901790;29;20669;-90
2022/01/03 07:22:27;;;;;;;4.20;1.70;;;;;;;18.65;47.40;97369.00;4891541;29;20639;-88
2022/01/03 07:24:54;;;;;;;2.77;1.67;;;;;;;19.42;47.21;97518.03;4871257;29;20210;-88
2022/01/03 07:27:20;;;;;;;3.93;1.70;;;;;;;18.60;47.07;97372.22;4887228;29;20311;-92
2022/01/03 07:29:48;;;;;;;3.47;2.20;;;;;;;18.16;46.80;97307.75;4877911;29;20292;-90
2022/01/03 07:32:15;;;;;;;3.47;2.07;;;;;;;14.71;46.93;96720.13;4882698;29;20244;-88
2022/01/03 07:34:42;;;;;;;3.50;2.00;;;;;;;18.43;46.94;97348.66;4881078;29;20253;-89
2022/01/03 07:37:08;;;;;;;4.17;2.03;;;;;;;17.39;47.22;97170.72;4880181;29;20272;-87
2022/01/03 07:39:35;;;;;;;2.50;2.00;;;;;;;13.63;47.31;96530.09;4900926;29;20287;-88
2022/01/03 07:42:02;;;;;;;1.90;1.70;;;;;;;19.65;47.78;97541.81;4888521;29;20985;-88
2022/01/03 07:44:29;;;;;;;2.10;1.77;;;;;;;17.30;47.40;97144.97;4892783;29;20222;-89
2022/01/03 07:46:56;;;;;;;3.73;2.20;;;;;;;19.57;47.68;97538.16;4890385;29;20229;-89
2022/01/03 07:49:23;;;;;;;3.47;2.23;;;;;;;19.64;48.09;97563.94;4901044;29;20221;-88
2022/01/03 07:51:49;;;;;;;4.33;2.13;;;;;;;18.34;47.74;97329.59;4886412;29;20201;-87
2022/01/03 07:54:16;;;;;;;4.17;1.93;;;;;;;18.50;47.30;97353.16;4890546;29;20308;-88
2022/01/03 07:56:43;;;;;;;4.43;1.90;;;;;;;19.08;47.64;97443.69;4900705;29;20664;-90
2022/01/03 07:59:09;;;;;;;3.77;2.33;;;;;;;19.66;47.67;97597.13;4891041;29;20225;-89
2022/01/03 08:01:37;;;;;;;4.30;2.30;;;;;;;18.95;47.84;97425.34;4919966;29;20928;-87
2022/01/03 08:04:04;;;;;;;2.20;1.97;;;;;;;16.94;48.52;97065.69;4888513;29;20252;-86
2022/01/03 08:06:44;;;;;;;2.90;2.07;;;;;;;17.28;48.01;97138.94;4897220;29;20221;-88
2022/01/03 08:09:10;;;;;;;5.00;2.20;;;;;;;19.52;47.76;97511.63;4907260;29;20232;-88
2022/01/03 08:11:37;;;;;;;2.47;2.13;;;;;;;17.10;48.08;97087.44;4923393;29;20678;-88
2022/01/03 08:14:03;;;;;;;3.20;2.00;;;;;;;19.70;48.07;97530.13;4879935;29;20375;-87
2022/01/03 08:16:30;;;;;;;2.27;2.07;;;;;;;18.54;48.11;97324.50;4909648;29;20205;-87
2022/01/03 08:18:57;;;;;;;3.00;2.07;;;;;;;17.76;48.20;97215.47;4907198;29;20709;-87
2022/01/03 08:21:23;;;;;;;2.43;2.17;;;;;;;19.74;48.02;97530.28;4907636;29;20592;-88
2022/01/03 08:23:51;;;;;;;2.20;2.00;;;;;;;18.63;48.19;97332.47;4924546;29;20265;-77
2022/01/03 08:26:18;;;;;;;2.17;1.97;;;;;;;19.25;48.26;97445.19;4903618;29;20351;-79
2022/01/03 08:28:44;;;;;;;2.17;1.90;;;;;;;18.24;48.19;97275.81;4890791;29;20288;-79
2022/01/03 08:31:11;;;;;;;2.03;1.80;;;;;;;17.84;48.06;97197.97;4892977;29;20331;-79
2022/01/03 08:33:38;;;;;;;2.67;1.93;;;;;;;18.99;48.18;97406.81;4890095;29;20744;-80
2022/01/03 08:36:05;;;;;;;1.60;1.50;;;;;;;17.36;48.25;97124.88;4904586;29;20205;-83
2022/01/03 08:38:32;;;;;;;1.87;1.77;;;;;;;19.46;48.46;97489.31;4904111;29;20211;-82
2022/01/03 08:40:58;;;;;;;2.40;2.07;;;;;;;19.08;48.83;97418.22;4905336;29;20296;-81
2022/01/03 08:43:25;;;;;;;4.33;2.00;;;;;;;19.14;48.71;97432.84;4890160;29;20325;-81
2022/01/03 08:45:51;;;;;;;3.80;2.30;;;;;;;18.96;48.69;97404.16;4890466;29;20237;-81
2022/01/03 08:48:18;;;;;;;3.83;1.90;;;;;;;19.78;48.79;97541.47;4895170;29;20210;-79
2022/01/03 08:50:45;;;;;;;2.03;1.83;;;;;;;19.01;48.77;97410.28;4926156;29;20305;-80
2022/01/03 08:53:11;;;;;;;6.30;1.90;;;;;;;18.74;48.85;97368.53;4893983;29;21073;-78
2022/01/03 08:55:39;;;;;;;2.27;1.70;;;;;;;19.67;48.87;97533.44;4890993;29;20758;-81
2022/01/03 08:58:05;;;;;;;2.20;1.70;;;;;;;19.73;49.27;97551.50;4910364;29;20358;-80
2022/01/03 09:00:32;;;;;;;2.60;1.90;;;;;;;19.11;49.09;97443.78;4906564;29;20341;-82
2022/01/03 09:02:59;;;;;;;3.77;1.67;;;;;;;17.87;49.02;97238.75;4894220;29;20250;-80
2022/01/03 09:05:25;;;;;;;2.30;2.00;;;;;;;17.77;49.24;97214.63;4894924;29;20301;-81
2022/01/03 09:07:52;;;;;;;1.90;1.80;;;;;;;17.73;49.26;97215.34;4910318;29;20225;-83
2022/01/03 09:10:19;;;;;;;1.80;1.70;;;;;;;18.33;49.18;97320.22;4884512;29;20235;-89
2022/01/03 09:12:45;;;;;;;2.67;1.83;;;;;;;16.37;49.49;96982.09;4909128;29;20320;-87
2022/01/03 09:15:12;;;;;;;3.47;1.83;;;;;;;18.29;49.33;97346.38;4895994;29;20297;-86
2022/01/03 09:17:39;;;;;;;2.17;1.90;;;;;;;17.57;49.46;97201.97;4898855;29;20205;-88
2022/01/03 09:20:06;;;;;;;1.57;1.47;;;;;;;19.24;49.64;97513.88;4915772;29;20247;-89
2022/01/03 09:22:38;;;;;;;3.33;1.80;;;;;;;17.19;49.39;97147.06;4901967;29;20251;-86
2022/01/03 09:30:16;;;;;;;2.53;2.00;;;;;;;17.91;49.74;97264.34;4901954;29;20210;-89
2022/01/03 09:32:43;;;;;;;2.13;1.73;;;;;;;18.82;50.09;97426.53;4897905;29;20292;-80
2022/01/03 09:35:10;;;;;;;2.03;1.83;;;;;;;18.39;49.55;97357.00;4927374;29;20237;-80
2022/01/03 09:37:36;;;;;;;3.30;1.80;;;;;;;17.89;49.80;97285.44;4894393;29;20233;-83
2022/01/03 09:40:04;;;;;;;2.13;1.80;;;;;;;18.57;49.83;97387.34;4906098;29;20209;-82
2022/01/03 09:42:31;;;;;;;2.33;1.73;;;;;;;18.92;49.78;97454.06;4896119;29;20288;-81
2022/01/03 09:45:01;;;;;;;2.93;2.10;;;;;;;18.95;49.68;97466.06;4903203;29;20636;-80
2022/01/03 09:47:29;;;;;;;2.87;1.80;;;;;;;17.39;49.75;97185.97;4911823;29;20221;-81
2022/01/03 09:49:56;;;;;;;4.23;1.90;;;;;;;19.10;49.58;97484.50;4887512;29;20322;-80
2022/01/03 09:52:23;;;;;;;1.73;1.60;;;;;;;18.88;49.64;97436.97;4884032;29;20891;-80
2022/01/03 09:54:50;;;;;;;2.20;1.93;;;;;;;18.58;49.86;97381.44;4898112;29;20221;-81
2022/01/03 09:57:21;;;;;;;1.93;1.70;;;;;;;19.51;49.71;97537.91;4894697;29;20248;-81
2022/01/03 09:59:47;;;;;;;2.80;2.00;;;;;;;18.46;49.85;97347.91;4930296;29;20378;-82
2022/01/03 10:02:15;;;;;;;2.73;1.80;;;;;;;18.61;49.86;97379.91;4897554;29;20655;-81
2022/01/03 10:04:42;;;;;;;3.67;2.20;;;;;;;19.49;49.90;97521.69;4887308;29;20229;-82
2022/01/03 10:07:10;;;;;;;2.00;1.80;;;;;;;19.03;50.20;97447.72;4891255;29;20241;-82
2022/01/03 10:09:37;;;;;;;1.80;1.60;;;;;;;19.37;49.96;97546.72;4896343;29;20320;-82
2022/01/03 10:12:05;;;;;;;3.97;1.70;;;;;;;19.47;49.98;97516.53;4906066;29;20243;-81
2022/01/03 10:14:31;;;;;;;3.13;2.23;;;;;;;17.52;49.34;97183.13;4906977;29;20312;-81
2022/01/03 10:16:59;;;;;;;2.20;1.90;;;;;;;18.93;50.00;97432.91;4894039;29;20209;-82
2022/01/03 10:19:25;;;;;;;1.70;1.60;;;;;;;16.24;49.90;96970.63;4926111;29;20209;-81
2022/01/03 10:21:52;;;;;;;2.60;1.90;;;;;;;19.08;50.07;97474.25;4895655;29;20276;-81
2022/01/03 10:24:29;;;;;;;1.97;1.50;;;;;;;19.12;50.04;97476.09;4897933;29;20312;-81
2022/01/03 10:26:56;;;;;;;1.80;1.70;;;;;;;16.85;50.01;97098.31;4885730;29;20319;-81
2022/01/03 10:29:27;;;;;;;3.33;1.80;;;;;;;18.16;50.14;97312.81;4895952;29;20257;-81
2022/01/03 10:31:55;;;;;;;2.13;1.70;;;;;;;18.82;49.96;97421.44;4905596;29;20210;-81
2022/01/03 10:34:23;;;;;;;1.90;1.80;;;;;;;17.08;50.28;97110.22;4879186;29;20261;-83
2022/01/03 10:36:50;;;;;;;1.80;1.70;;;;;;;13.32;50.14;96471.47;4886383;29;20292;-81
2022/01/03 10:39:19;;;;;;;1.87;1.67;;;;;;;19.38;50.29;97522.97;4895359;29;20580;-81
2022/01/03 10:42:10;;;;;;;1.93;1.80;;;;;;;18.49;50.53;97363.28;4895243;29;20206;-81
2022/01/03 10:44:37;;;;;;;1.70;1.60;;;;;;;17.25;50.26;97143.91;4920035;29;20340;-81
2022/01/03 10:47:05;;;;;;;3.07;2.20;;;;;;;19.02;50.51;97452.75;4895285;29;20283;-80
2022/01/03 10:49:32;;;;;;;1.87;1.77;;;;;;;18.97;50.33;97433.88;4907809;29;20211;-82
2022/01/03 10:52:14;;;;;;;4.00;1.97;;;;;;;19.35;50.47;97500.78;4907525;29;20244;-79
2022/01/03 10:54:40;;;;;;;2.03;1.83;;;;;;;17.28;50.34;97142.38;4914333;29;20308;-78
2022/01/03 10:57:07;;;;;;;2.33;1.83;;;;;;;19.02;50.44;97442.56;4880002;29;20269;-79
2022/01/03 10:59:35;;;;;;;2.40;2.07;;;;;;;18.74;50.66;97399.06;4874302;29;20213;-78
2022/01/03 11:02:10;;;;;;;2.00;1.80;;;;;;;19.33;50.58;97510.03;4916550;29;20221;-78
2022/01/03 11:04:56;;;;;;;1.80;1.70;;;;;;;16.32;50.81;97011.50;4925605;29;20230;-78
2022/01/03 11:13:07;;;;;;;2.10;1.80;;;;;;;16.85;50.46;97095.78;4923440;29;20289;-80
2022/01/03 11:15:34;;;;;;;1.73;1.53;;;;;;;18.07;50.58;97294.66;4931508;29;20210;-78
2022/01/03 11:18:07;;;;;;;2.17;1.93;;;;;;;13.30;50.38;96566.44;4898540;29;20273;-80
2022/01/03 11:20:34;;;;;;;2.03;1.83;;;;;;;18.65;50.70;97386.84;4911903;29;20291;-82
2022/01/03 11:23:01;;;;;;;2.43;1.70;;;;;;;17.06;50.50;97175.31;4889570;29;20324;-80
2022/01/03 11:25:32;;;;;;;1.97;1.83;;;;;;;16.31;50.50;96980.19;4896060;29;20209;-79
2022/01/03 11:28:00;;;;;;;2.30;1.97;;;;;;;16.67;50.58;97056.94;4899135;29;20309;-80
2022/01/03 11:30:26;;;;;;;2.20;1.93;;;;;;;18.02;50.43;97270.72;4891817;29;20295;-79
2022/01/03 11:32:53;;;;;;;3.60;2.27;;;;;;;19.28;50.48;97478.44;4908369;29;20309;-78
2022/01/03 11:35:20;;;;;;;4.83;2.40;;;;;;;18.44;50.03;97332.56;4903219;29;20217;-81
2022/01/03 11:37:47;;;;;;;3.87;2.20;;;;;;;14.20;50.17;96598.25;4884886;29;20284;-82
2022/01/03 11:40:17;;;;;;;11.67;2.23;;;;;;;18.08;50.63;97268.41;4906641;29;20236;-79
2022/01/03 11:42:44;;;;;;;3.27;2.10;;;;;;;17.13;50.65;97210.31;4886895;29;20962;-79
2022/01/03 11:45:11;;;;;;;5.53;2.07;;;;;;;12.84;51.08;96398.66;4907914;29;20216;-79
2022/01/03 11:47:37;;;;;;;3.57;2.33;;;;;;;17.23;50.82;97110.00;4897650;29;20225;-87
2022/01/03 11:50:08;;;;;;;4.13;2.53;;;;;;;17.53;50.87;97152.69;4899760;29;20217;-88
2022/01/03 11:52:39;;;;;;;2.17;1.97;;;;;;;17.18;50.78;97089.50;4895811;29;20224;-88
2022/01/03 11:55:07;;;;;;;2.37;1.90;;;;;;;17.65;50.70;97190.44;4902728;29;20213;-87
2022/01/03 12:03:37;;;;;;;3.13;2.00;;;;;;;19.25;50.74;97427.34;4916790;29;21867;-87
2022/01/03 12:06:05;;;;;;;3.00;2.10;;;;;;;16.86;50.85;97003.59;4896343;29;20209;-86